sensor_id;sensor_type;location;lat;lon;timestamp;pressure;altitude;pressure_sealevel;temperature
68745;BMP180;55731;45.456;11.064;2022-10-24T00:00:24;101228.60;;;18.40
68745;BMP180;55731;45.456;11.064;2022-10-24T00:02:58;101222.60;;;18.40
68745;BMP180;55731;45.456;11.064;2022-10-24T00:05:30;101224.80;;;18.30
68745;BMP180;55731;45.456;11.064;2022-10-24T00:08:04;101233.20;;;18.40
68745;BMP180;55731;45.456;11.064;2022-10-24T00:10:41;101233.60;;;18.40
68745;BMP180;55731;45.456;11.064;2022-10-24T00:13:17;101227.00;;;18.40
68745;BMP180;55731;45.456;11.064;2022-10-24T00:15:52;101224.20;;;18.40
68745;BMP180;55731;45.456;11.064;2022-10-24T00:18:25;101228.80;;;18.40
68745;BMP180;55731;45.456;11.064;2022-10-24T00:20:58;101229.00;;;18.40
68745;BMP180;55731;45.456;11.064;2022-10-24T00:23:30;101225.80;;;18.40
68745;BMP180;55731;45.456;11.064;2022-10-24T00:26:04;101228.60;;;18.40
68745;BMP180;55731;45.456;11.064;2022-10-24T00:28:36;101225.20;;;18.42
68745;BMP180;55731;45.456;11.064;2022-10-24T00:31:14;101220.00;;;18.50
68745;BMP180;55731;45.456;11.064;2022-10-24T00:33:47;101206.80;;;18.50
68745;BMP180;55731;45.456;11.064;2022-10-24T00:36:23;101209.00;;;18.40
68745;BMP180;55731;45.456;11.064;2022-10-24T00:38:55;101209.40;;;18.40
68745;BMP180;55731;45.456;11.064;2022-10-24T00:41:32;101212.40;;;18.34
68745;BMP180;55731;45.456;11.064;2022-10-24T00:44:24;101216.60;;;18.30
68745;BMP180;55731;45.456;11.064;2022-10-24T00:47:02;101225.20;;;18.30
68745;BMP180;55731;45.456;11.064;2022-10-24T00:49:50;101224.20;;;18.30
68745;BMP180;55731;45.456;11.064;2022-10-24T00:52:29;101220.60;;;18.30
68745;BMP180;55731;45.456;11.064;2022-10-24T00:55:06;101216.40;;;18.30
68745;BMP180;55731;45.456;11.064;2022-10-24T00:57:45;101211.00;;;18.30
68745;BMP180;55731;45.456;11.064;2022-10-24T01:00:24;101204.40;;;18.30
68745;BMP180;55731;45.456;11.064;2022-10-24T01:02:59;101203.80;;;18.30
68745;BMP180;55731;45.456;11.064;2022-10-24T01:05:38;101211.40;;;18.20
68745;BMP180;55731;45.456;11.064;2022-10-24T01:08:23;101213.40;;;18.20
68745;BMP180;55731;45.456;11.064;2022-10-24T01:11:09;101209.00;;;18.20
68745;BMP180;55731;45.456;11.064;2022-10-24T01:13:59;101214.80;;;18.20
68745;BMP180;55731;45.456;11.064;2022-10-24T01:16:44;101226.40;;;18.20
68745;BMP180;55731;45.456;11.064;2022-10-24T01:19:57;101233.40;;;18.20
68745;BMP180;55731;45.456;11.064;2022-10-24T01:22:40;101222.00;;;18.10
68745;BMP180;55731;45.456;11.064;2022-10-24T01:25:23;101224.80;;;18.10
68745;BMP180;55731;45.456;11.064;2022-10-24T01:28:08;101222.00;;;18.00
68745;BMP180;55731;45.456;11.064;2022-10-24T01:30:47;101214.00;;;17.94
68745;BMP180;55731;45.456;11.064;2022-10-24T01:33:31;101211.20;;;17.94
68745;BMP180;55731;45.456;11.064;2022-10-24T01:36:11;101215.60;;;17.90
68745;BMP180;55731;45.456;11.064;2022-10-24T01:38:55;101217.00;;;17.90
68745;BMP180;55731;45.456;11.064;2022-10-24T01:41:33;101211.20;;;17.90
68745;BMP180;55731;45.456;11.064;2022-10-24T01:44:11;101210.80;;;17.90
68745;BMP180;55731;45.456;11.064;2022-10-24T01:46:51;101204.80;;;17.80
68745;BMP180;55731;45.456;11.064;2022-10-24T01:49:32;101203.00;;;17.80
68745;BMP180;55731;45.456;11.064;2022-10-24T01:52:11;101200.20;;;17.80
68745;BMP180;55731;45.456;11.064;2022-10-24T01:54:46;101195.00;;;17.80
68745;BMP180;55731;45.456;11.064;2022-10-24T01:57:23;101195.60;;;17.90
68745;BMP180;55731;45.456;11.064;2022-10-24T01:59:58;101197.60;;;17.90
68745;BMP180;55731;45.456;11.064;2022-10-24T02:02:35;101195.20;;;17.90
68745;BMP180;55731;45.456;11.064;2022-10-24T02:05:18;101195.60;;;17.86
68745;BMP180;55731;45.456;11.064;2022-10-24T02:07:54;101187.40;;;17.90
68745;BMP180;55731;45.456;11.064;2022-10-24T02:10:33;101182.80;;;17.80
68745;BMP180;55731;45.456;11.064;2022-10-24T02:13:16;101179.40;;;17.80
68745;BMP180;55731;45.456;11.064;2022-10-24T02:15:54;101178.40;;;17.80
68745;BMP180;55731;45.456;11.064;2022-10-24T02:18:32;101182.20;;;17.80
68745;BMP180;55731;45.456;11.064;2022-10-24T02:21:21;101178.20;;;17.80
68745;BMP180;55731;45.456;11.064;2022-10-24T02:24:02;101172.00;;;17.80
68745;BMP180;55731;45.456;11.064;2022-10-24T02:26:46;101166.60;;;17.76
68745;BMP180;55731;45.456;11.064;2022-10-24T02:29:26;101163.60;;;17.70
68745;BMP180;55731;45.456;11.064;2022-10-24T02:32:04;101154.40;;;17.70
68745;BMP180;55731;45.456;11.064;2022-10-24T02:34:39;101157.00;;;17.72
68745;BMP180;55731;45.456;11.064;2022-10-24T02:37:16;101158.80;;;17.78
68745;BMP180;55731;45.456;11.064;2022-10-24T02:39:50;101155.20;;;17.70
68745;BMP180;55731;45.456;11.064;2022-10-24T02:42:25;101151.00;;;17.70
68745;BMP180;55731;45.456;11.064;2022-10-24T02:45:00;101147.60;;;17.70
68745;BMP180;55731;45.456;11.064;2022-10-24T02:47:35;101146.80;;;17.70
68745;BMP180;55731;45.456;11.064;2022-10-24T02:50:12;101146.60;;;17.70
68745;BMP180;55731;45.456;11.064;2022-10-24T02:52:46;101144.20;;;17.70
68745;BMP180;55731;45.456;11.064;2022-10-24T02:55:19;101154.60;;;17.70
68745;BMP180;55731;45.456;11.064;2022-10-24T02:57:53;101149.40;;;17.68
68745;BMP180;55731;45.456;11.064;2022-10-24T03:00:25;101139.00;;;17.70
68745;BMP180;55731;45.456;11.064;2022-10-24T03:02:59;101141.00;;;17.70
68745;BMP180;55731;45.456;11.064;2022-10-24T03:05:32;101137.40;;;17.70
68745;BMP180;55731;45.456;11.064;2022-10-24T03:08:07;101136.80;;;17.70
68745;BMP180;55731;45.456;11.064;2022-10-24T03:10:40;101130.00;;;17.70
68745;BMP180;55731;45.456;11.064;2022-10-24T03:13:13;101135.00;;;17.70
68745;BMP180;55731;45.456;11.064;2022-10-24T03:15:47;101138.60;;;17.70
68745;BMP180;55731;45.456;11.064;2022-10-24T03:18:20;101138.20;;;17.70
68745;BMP180;55731;45.456;11.064;2022-10-24T03:20:54;101138.00;;;17.70
68745;BMP180;55731;45.456;11.064;2022-10-24T03:23:27;101137.20;;;17.70
68745;BMP180;55731;45.456;11.064;2022-10-24T03:26:01;101137.80;;;17.60
68745;BMP180;55731;45.456;11.064;2022-10-24T03:28:34;101141.40;;;17.60
68745;BMP180;55731;45.456;11.064;2022-10-24T03:31:07;101139.00;;;17.60
68745;BMP180;55731;45.456;11.064;2022-10-24T03:33:40;101136.40;;;17.50
68745;BMP180;55731;45.456;11.064;2022-10-24T03:36:13;101133.00;;;17.50
68745;BMP180;55731;45.456;11.064;2022-10-24T03:38:47;101137.60;;;17.40
68745;BMP180;55731;45.456;11.064;2022-10-24T03:41:20;101139.40;;;17.40
68745;BMP180;55731;45.456;11.064;2022-10-24T03:43:53;101139.40;;;17.40
68745;BMP180;55731;45.456;11.064;2022-10-24T03:46:26;101139.40;;;17.30
68745;BMP180;55731;45.456;11.064;2022-10-24T03:48:59;101144.40;;;17.30
68745;BMP180;55731;45.456;11.064;2022-10-24T03:51:32;101149.00;;;17.30
68745;BMP180;55731;45.456;11.064;2022-10-24T03:54:05;101151.20;;;17.30
68745;BMP180;55731;45.456;11.064;2022-10-24T03:56:38;101154.00;;;17.30
68745;BMP180;55731;45.456;11.064;2022-10-24T03:59:11;101155.80;;;17.30
68745;BMP180;55731;45.456;11.064;2022-10-24T04:01:44;101158.20;;;17.20
68745;BMP180;55731;45.456;11.064;2022-10-24T04:04:16;101158.40;;;17.20
68745;BMP180;55731;45.456;11.064;2022-10-24T04:06:50;101153.60;;;17.20
68745;BMP180;55731;45.456;11.064;2022-10-24T04:09:23;101148.40;;;17.20
68745;BMP180;55731;45.456;11.064;2022-10-24T04:11:57;101144.20;;;17.20
68745;BMP180;55731;45.456;11.064;2022-10-24T04:14:31;101139.60;;;17.20
68745;BMP180;55731;45.456;11.064;2022-10-24T04:17:04;101137.40;;;17.20
68745;BMP180;55731;45.456;11.064;2022-10-24T04:19:38;101133.40;;;17.30
68745;BMP180;55731;45.456;11.064;2022-10-24T04:22:11;101122.80;;;17.30
68745;BMP180;55731;45.456;11.064;2022-10-24T04:24:43;101119.20;;;17.20
68745;BMP180;55731;45.456;11.064;2022-10-24T04:27:16;101121.60;;;17.20
68745;BMP180;55731;45.456;11.064;2022-10-24T04:29:51;101121.20;;;17.20
68745;BMP180;55731;45.456;11.064;2022-10-24T04:32:24;101117.40;;;17.20
68745;BMP180;55731;45.456;11.064;2022-10-24T04:34:58;101115.40;;;17.20
68745;BMP180;55731;45.456;11.064;2022-10-24T04:37:33;101118.80;;;17.20
68745;BMP180;55731;45.456;11.064;2022-10-24T04:40:11;101125.40;;;17.20
68745;BMP180;55731;45.456;11.064;2022-10-24T04:42:44;101126.80;;;17.20
68745;BMP180;55731;45.456;11.064;2022-10-24T04:45:18;101135.60;;;17.20
68745;BMP180;55731;45.456;11.064;2022-10-24T04:47:52;101136.20;;;17.20
68745;BMP180;55731;45.456;11.064;2022-10-24T04:50:25;101136.60;;;17.20
68745;BMP180;55731;45.456;11.064;2022-10-24T04:52:59;101138.20;;;17.20
68745;BMP180;55731;45.456;11.064;2022-10-24T04:55:32;101137.00;;;17.20
68745;BMP180;55731;45.456;11.064;2022-10-24T04:58:05;101133.40;;;17.20
68745;BMP180;55731;45.456;11.064;2022-10-24T05:00:39;101142.20;;;17.20
68745;BMP180;55731;45.456;11.064;2022-10-24T05:03:17;101141.80;;;17.10
68745;BMP180;55731;45.456;11.064;2022-10-24T05:05:50;101136.20;;;17.10
68745;BMP180;55731;45.456;11.064;2022-10-24T05:08:23;101132.00;;;17.00
68745;BMP180;55731;45.456;11.064;2022-10-24T05:10:56;101129.00;;;16.90
68745;BMP180;55731;45.456;11.064;2022-10-24T05:13:29;101128.00;;;16.80
68745;BMP180;55731;45.456;11.064;2022-10-24T05:16:07;101131.00;;;16.78
68745;BMP180;55731;45.456;11.064;2022-10-24T05:18:40;101132.20;;;16.70
68745;BMP180;55731;45.456;11.064;2022-10-24T05:21:14;101124.60;;;16.60
68745;BMP180;55731;45.456;11.064;2022-10-24T05:23:46;101117.20;;;16.50
68745;BMP180;55731;45.456;11.064;2022-10-24T05:26:19;101111.20;;;16.50
68745;BMP180;55731;45.456;11.064;2022-10-24T05:28:51;101116.20;;;16.50
68745;BMP180;55731;45.456;11.064;2022-10-24T05:31:24;101116.80;;;16.50
68745;BMP180;55731;45.456;11.064;2022-10-24T05:33:58;101121.80;;;16.58
68745;BMP180;55731;45.456;11.064;2022-10-24T05:36:32;101117.20;;;16.60
68745;BMP180;55731;45.456;11.064;2022-10-24T05:39:05;101121.80;;;16.70
68745;BMP180;55731;45.456;11.064;2022-10-24T05:41:37;101124.00;;;16.70
68745;BMP180;55731;45.456;11.064;2022-10-24T05:44:17;101119.80;;;16.78
68745;BMP180;55731;45.456;11.064;2022-10-24T05:46:50;101110.00;;;16.80
68745;BMP180;55731;45.456;11.064;2022-10-24T05:49:24;101112.00;;;16.80
68745;BMP180;55731;45.456;11.064;2022-10-24T05:51:57;101115.20;;;16.90
68745;BMP180;55731;45.456;11.064;2022-10-24T05:54:30;101107.60;;;16.90
68745;BMP180;55731;45.456;11.064;2022-10-24T05:57:23;101115.80;;;17.00
68745;BMP180;55731;45.456;11.064;2022-10-24T05:59:56;101118.00;;;17.00
68745;BMP180;55731;45.456;11.064;2022-10-24T06:02:29;101120.00;;;17.00
68745;BMP180;55731;45.456;11.064;2022-10-24T06:05:05;101116.40;;;17.00
68745;BMP180;55731;45.456;11.064;2022-10-24T06:07:39;101113.40;;;17.00
68745;BMP180;55731;45.456;11.064;2022-10-24T06:10:13;101120.40;;;17.00
68745;BMP180;55731;45.456;11.064;2022-10-24T06:12:46;101122.80;;;17.00
68745;BMP180;55731;45.456;11.064;2022-10-24T06:15:19;101127.00;;;17.00
68745;BMP180;55731;45.456;11.064;2022-10-24T06:17:52;101124.80;;;17.00
68745;BMP180;55731;45.456;11.064;2022-10-24T06:20:25;101128.00;;;17.10
68745;BMP180;55731;45.456;11.064;2022-10-24T06:22:58;101135.60;;;17.10
68745;BMP180;55731;45.456;11.064;2022-10-24T06:25:31;101131.20;;;17.10
68745;BMP180;55731;45.456;11.064;2022-10-24T06:28:05;101121.20;;;17.10
68745;BMP180;55731;45.456;11.064;2022-10-24T06:30:41;101119.80;;;17.10
68745;BMP180;55731;45.456;11.064;2022-10-24T06:33:13;101119.00;;;17.10
68745;BMP180;55731;45.456;11.064;2022-10-24T06:35:47;101122.40;;;17.12
68745;BMP180;55731;45.456;11.064;2022-10-24T06:38:19;101125.40;;;17.20
68745;BMP180;55731;45.456;11.064;2022-10-24T06:40:53;101119.20;;;17.30
68745;BMP180;55731;45.456;11.064;2022-10-24T06:43:25;101111.60;;;17.32
68745;BMP180;55731;45.456;11.064;2022-10-24T06:45:58;101110.00;;;17.40
68745;BMP180;55731;45.456;11.064;2022-10-24T06:48:31;101114.60;;;17.46
68745;BMP180;55731;45.456;11.064;2022-10-24T06:51:05;101120.80;;;17.50
68745;BMP180;55731;45.456;11.064;2022-10-24T06:53:38;101122.40;;;17.50
68745;BMP180;55731;45.456;11.064;2022-10-24T06:56:13;101138.00;;;17.60
68745;BMP180;55731;45.456;11.064;2022-10-24T06:58:48;101150.80;;;17.60
68745;BMP180;55731;45.456;11.064;2022-10-24T07:01:24;101150.40;;;17.70
68745;BMP180;55731;45.456;11.064;2022-10-24T07:03:57;101143.60;;;17.70
68745;BMP180;55731;45.456;11.064;2022-10-24T07:06:31;101143.00;;;17.70
68745;BMP180;55731;45.456;11.064;2022-10-24T07:09:07;101148.00;;;17.70
68745;BMP180;55731;45.456;11.064;2022-10-24T07:11:45;101148.00;;;17.70
68745;BMP180;55731;45.456;11.064;2022-10-24T07:14:19;101148.60;;;17.60
68745;BMP180;55731;45.456;11.064;2022-10-24T07:16:52;101146.40;;;17.70
68745;BMP180;55731;45.456;11.064;2022-10-24T07:19:25;101137.00;;;17.80
68745;BMP180;55731;45.456;11.064;2022-10-24T07:21:58;101131.00;;;17.90
68745;BMP180;55731;45.456;11.064;2022-10-24T07:24:32;101125.40;;;18.00
68745;BMP180;55731;45.456;11.064;2022-10-24T07:27:05;101119.40;;;18.02
68745;BMP180;55731;45.456;11.064;2022-10-24T07:29:41;101131.40;;;18.10
68745;BMP180;55731;45.456;11.064;2022-10-24T07:32:14;101136.60;;;18.20
68745;BMP180;55731;45.456;11.064;2022-10-24T07:34:48;101139.20;;;18.26
68745;BMP180;55731;45.456;11.064;2022-10-24T07:37:21;101139.00;;;18.36
68745;BMP180;55731;45.456;11.064;2022-10-24T07:39:55;101140.60;;;18.50
68745;BMP180;55731;45.456;11.064;2022-10-24T07:42:28;101132.00;;;18.62
68745;BMP180;55731;45.456;11.064;2022-10-24T07:45:02;101131.00;;;18.78
68745;BMP180;55731;45.456;11.064;2022-10-24T07:47:35;101131.60;;;18.90
68745;BMP180;55731;45.456;11.064;2022-10-24T07:50:11;101134.80;;;19.00
68745;BMP180;55731;45.456;11.064;2022-10-24T07:52:44;101140.40;;;19.10
68745;BMP180;55731;45.456;11.064;2022-10-24T07:55:18;101135.00;;;19.16
68745;BMP180;55731;45.456;11.064;2022-10-24T07:57:52;101137.20;;;19.24
68745;BMP180;55731;45.456;11.064;2022-10-24T08:00:26;101144.60;;;19.40
68745;BMP180;55731;45.456;11.064;2022-10-24T08:02:59;101150.60;;;19.50
68745;BMP180;55731;45.456;11.064;2022-10-24T08:05:32;101151.60;;;19.70
68745;BMP180;55731;45.456;11.064;2022-10-24T08:08:07;101141.00;;;19.80
68745;BMP180;55731;45.456;11.064;2022-10-24T08:11:00;101135.40;;;19.90
68745;BMP180;55731;45.456;11.064;2022-10-24T08:13:33;101121.20;;;20.00
68745;BMP180;55731;45.456;11.064;2022-10-24T08:16:10;101124.00;;;20.10
68745;BMP180;55731;45.456;11.064;2022-10-24T08:18:44;101131.20;;;20.20
68745;BMP180;55731;45.456;11.064;2022-10-24T08:21:19;101140.40;;;20.20
68745;BMP180;55731;45.456;11.064;2022-10-24T08:23:54;101145.40;;;20.30
68745;BMP180;55731;45.456;11.064;2022-10-24T08:26:27;101148.40;;;20.40
68745;BMP180;55731;45.456;11.064;2022-10-24T08:29:01;101145.20;;;20.50
68745;BMP180;55731;45.456;11.064;2022-10-24T08:31:41;101143.00;;;20.60
68745;BMP180;55731;45.456;11.064;2022-10-24T08:34:15;101147.00;;;20.60
68745;BMP180;55731;45.456;11.064;2022-10-24T08:36:49;101150.40;;;20.70
68745;BMP180;55731;45.456;11.064;2022-10-24T08:39:22;101144.20;;;20.70
68745;BMP180;55731;45.456;11.064;2022-10-24T08:41:59;101147.00;;;20.80
68745;BMP180;55731;45.456;11.064;2022-10-24T08:44:35;101145.80;;;20.90
68745;BMP180;55731;45.456;11.064;2022-10-24T08:47:21;101148.60;;;21.00
68745;BMP180;55731;45.456;11.064;2022-10-24T08:50:04;101153.60;;;21.00
68745;BMP180;55731;45.456;11.064;2022-10-24T08:52:44;101158.40;;;21.00
68745;BMP180;55731;45.456;11.064;2022-10-24T08:55:21;101156.00;;;21.00
68745;BMP180;55731;45.456;11.064;2022-10-24T08:58:17;101151.80;;;21.00
68745;BMP180;55731;45.456;11.064;2022-10-24T09:00:54;101145.80;;;21.00
68745;BMP180;55731;45.456;11.064;2022-10-24T09:03:33;101139.00;;;21.00
68745;BMP180;55731;45.456;11.064;2022-10-24T09:06:27;101132.60;;;21.00
68745;BMP180;55731;45.456;11.064;2022-10-24T09:09:05;101125.40;;;21.00
68745;BMP180;55731;45.456;11.064;2022-10-24T09:11:51;101119.40;;;21.00
68745;BMP180;55731;45.456;11.064;2022-10-24T09:14:28;101127.60;;;21.00
68745;BMP180;55731;45.456;11.064;2022-10-24T09:17:13;101129.40;;;21.00
68745;BMP180;55731;45.456;11.064;2022-10-24T09:19:54;101129.60;;;21.00
68745;BMP180;55731;45.456;11.064;2022-10-24T09:22:32;101126.00;;;20.90
68745;BMP180;55731;45.456;11.064;2022-10-24T09:25:16;101139.00;;;20.90
68745;BMP180;55731;45.456;11.064;2022-10-24T09:27:52;101135.60;;;20.90
68745;BMP180;55731;45.456;11.064;2022-10-24T09:30:26;101124.20;;;21.00
68745;BMP180;55731;45.456;11.064;2022-10-24T09:33:16;101117.40;;;21.20
68745;BMP180;55731;45.456;11.064;2022-10-24T09:35:53;101113.80;;;21.30
68745;BMP180;55731;45.456;11.064;2022-10-24T09:38:47;101117.20;;;21.40
68745;BMP180;55731;45.456;11.064;2022-10-24T09:41:25;101119.80;;;21.50
68745;BMP180;55731;45.456;11.064;2022-10-24T09:44:01;101111.60;;;21.50
68745;BMP180;55731;45.456;11.064;2022-10-24T09:46:40;101098.80;;;21.60
68745;BMP180;55731;45.456;11.064;2022-10-24T09:49:22;101088.40;;;21.64
68745;BMP180;55731;45.456;11.064;2022-10-24T09:52:06;101093.80;;;21.80
68745;BMP180;55731;45.456;11.064;2022-10-24T09:54:40;101096.80;;;21.90
68745;BMP180;55731;45.456;11.064;2022-10-24T09:57:17;101090.00;;;22.06
68745;BMP180;55731;45.456;11.064;2022-10-24T09:59:59;101085.60;;;22.20
68745;BMP180;55731;45.456;11.064;2022-10-24T10:02:35;101081.00;;;22.30
68745;BMP180;55731;45.456;11.064;2022-10-24T10:05:20;101086.60;;;22.40
68745;BMP180;55731;45.456;11.064;2022-10-24T10:07:53;101080.40;;;22.50
68745;BMP180;55731;45.456;11.064;2022-10-24T10:10:31;101086.60;;;22.56
68745;BMP180;55731;45.456;11.064;2022-10-24T10:13:18;101095.80;;;22.60
68745;BMP180;55731;45.456;11.064;2022-10-24T10:15:55;101097.60;;;22.60
68745;BMP180;55731;45.456;11.064;2022-10-24T10:18:49;101095.00;;;22.60
68745;BMP180;55731;45.456;11.064;2022-10-24T10:21:23;101094.40;;;22.60
68745;BMP180;55731;45.456;11.064;2022-10-24T10:23:57;101092.80;;;22.70
68745;BMP180;55731;45.456;11.064;2022-10-24T10:26:43;101085.60;;;22.70
68745;BMP180;55731;45.456;11.064;2022-10-24T10:29:24;101091.00;;;22.70
68745;BMP180;55731;45.456;11.064;2022-10-24T10:32:08;101092.40;;;22.78
68745;BMP180;55731;45.456;11.064;2022-10-24T10:34:51;101092.20;;;22.80
68745;BMP180;55731;45.456;11.064;2022-10-24T10:37:31;101081.40;;;22.78
68745;BMP180;55731;45.456;11.064;2022-10-24T10:40:26;101085.00;;;22.70
68745;BMP180;55731;45.456;11.064;2022-10-24T10:43:24;101080.60;;;22.70
68745;BMP180;55731;45.456;11.064;2022-10-24T10:46:15;101076.40;;;22.70
68745;BMP180;55731;45.456;11.064;2022-10-24T10:49:04;101071.00;;;22.80
68745;BMP180;55731;45.456;11.064;2022-10-24T10:51:49;101059.80;;;22.90
68745;BMP180;55731;45.456;11.064;2022-10-24T10:54:53;101060.00;;;23.00
68745;BMP180;55731;45.456;11.064;2022-10-24T10:57:38;101060.20;;;23.10
68745;BMP180;55731;45.456;11.064;2022-10-24T11:00:20;101062.60;;;23.20
68745;BMP180;55731;45.456;11.064;2022-10-24T11:03:14;101051.20;;;23.26
68745;BMP180;55731;45.456;11.064;2022-10-24T11:06:26;101045.20;;;23.30
68745;BMP180;55731;45.456;11.064;2022-10-24T11:09:27;101042.60;;;23.40
68745;BMP180;55731;45.456;11.064;2022-10-24T11:12:08;101042.60;;;23.40
68745;BMP180;55731;45.456;11.064;2022-10-24T11:14:49;101046.20;;;23.40
68745;BMP180;55731;45.456;11.064;2022-10-24T11:17:26;101045.40;;;23.40
68745;BMP180;55731;45.456;11.064;2022-10-24T11:20:12;101037.60;;;23.40
68745;BMP180;55731;45.456;11.064;2022-10-24T11:22:51;101044.00;;;23.40
68745;BMP180;55731;45.456;11.064;2022-10-24T11:25:34;101039.60;;;23.40
68745;BMP180;55731;45.456;11.064;2022-10-24T11:28:15;101035.20;;;23.50
68745;BMP180;55731;45.456;11.064;2022-10-24T11:30:58;101030.80;;;23.52
68745;BMP180;55731;45.456;11.064;2022-10-24T11:33:38;101024.00;;;23.60
68745;BMP180;55731;45.456;11.064;2022-10-24T11:36:20;101013.40;;;23.60
68745;BMP180;55731;45.456;11.064;2022-10-24T11:39:03;101011.60;;;23.60
68745;BMP180;55731;45.456;11.064;2022-10-24T11:41:47;101008.80;;;23.60
68745;BMP180;55731;45.456;11.064;2022-10-24T11:44:44;101008.20;;;23.66
68745;BMP180;55731;45.456;11.064;2022-10-24T11:50:34;101006.40;;;23.70
68745;BMP180;55731;45.456;11.064;2022-10-24T11:53:35;100999.40;;;23.80
68745;BMP180;55731;45.456;11.064;2022-10-24T11:56:16;100993.80;;;23.90
68745;BMP180;55731;45.456;11.064;2022-10-24T11:58:59;100991.00;;;23.90
68745;BMP180;55731;45.456;11.064;2022-10-24T12:05:12;100979.80;;;23.90
68745;BMP180;55731;45.456;11.064;2022-10-24T12:08:28;100978.20;;;23.90
68745;BMP180;55731;45.456;11.064;2022-10-24T12:14:52;100958.60;;;24.10
68745;BMP180;55731;45.456;11.064;2022-10-24T12:17:57;100953.20;;;24.12
68745;BMP180;55731;45.456;11.064;2022-10-24T12:20:32;100941.80;;;24.20
68745;BMP180;55731;45.456;11.064;2022-10-24T12:23:15;100939.60;;;24.20
68745;BMP180;55731;45.456;11.064;2022-10-24T12:26:02;100940.40;;;24.20
68745;BMP180;55731;45.456;11.064;2022-10-24T12:28:35;100954.40;;;24.10
68745;BMP180;55731;45.456;11.064;2022-10-24T12:31:24;100953.80;;;24.00
68745;BMP180;55731;45.456;11.064;2022-10-24T12:34:41;100947.60;;;24.00
68745;BMP180;55731;45.456;11.064;2022-10-24T12:37:42;100925.40;;;24.00
68745;BMP180;55731;45.456;11.064;2022-10-24T12:40:54;100918.20;;;24.00
68745;BMP180;55731;45.456;11.064;2022-10-24T12:43:34;100932.20;;;24.00
68745;BMP180;55731;45.456;11.064;2022-10-24T12:46:53;100916.00;;;24.00
68745;BMP180;55731;45.456;11.064;2022-10-24T12:49:30;100902.60;;;24.00
68745;BMP180;55731;45.456;11.064;2022-10-24T12:53:00;100909.00;;;24.10
68745;BMP180;55731;45.456;11.064;2022-10-24T12:56:13;100903.60;;;24.10
68745;BMP180;55731;45.456;11.064;2022-10-24T12:58:56;100897.00;;;24.10
68745;BMP180;55731;45.456;11.064;2022-10-24T13:01:33;100901.20;;;24.10
68745;BMP180;55731;45.456;11.064;2022-10-24T13:04:58;100901.40;;;24.16
68745;BMP180;55731;45.456;11.064;2022-10-24T13:08:09;100888.80;;;24.20
68745;BMP180;55731;45.456;11.064;2022-10-24T13:11:03;100883.00;;;24.10
68745;BMP180;55731;45.456;11.064;2022-10-24T13:14:26;100886.00;;;24.00
68745;BMP180;55731;45.456;11.064;2022-10-24T13:17:12;100885.20;;;24.00
68745;BMP180;55731;45.456;11.064;2022-10-24T13:19:47;100892.40;;;24.00
68745;BMP180;55731;45.456;11.064;2022-10-24T13:22:37;100895.60;;;23.90
68745;BMP180;55731;45.456;11.064;2022-10-24T13:25:30;100875.20;;;23.80
68745;BMP180;55731;45.456;11.064;2022-10-24T13:28:35;100879.00;;;23.80
68745;BMP180;55731;45.456;11.064;2022-10-24T13:34:56;100881.20;;;23.90
68745;BMP180;55731;45.456;11.064;2022-10-24T13:37:34;100876.80;;;23.94
68745;BMP180;55731;45.456;11.064;2022-10-24T13:40:16;100879.80;;;24.00
68745;BMP180;55731;45.456;11.064;2022-10-24T13:42:56;100872.40;;;23.98
68745;BMP180;55731;45.456;11.064;2022-10-24T13:45:44;100869.20;;;23.90
68745;BMP180;55731;45.456;11.064;2022-10-24T13:48:20;100874.40;;;23.96
68745;BMP180;55731;45.456;11.064;2022-10-24T13:51:07;100868.80;;;24.00
68745;BMP180;55731;45.456;11.064;2022-10-24T13:53:48;100862.20;;;23.90
68745;BMP180;55731;45.456;11.064;2022-10-24T13:56:23;100861.00;;;23.84
68745;BMP180;55731;45.456;11.064;2022-10-24T13:58:56;100863.60;;;23.80
68745;BMP180;55731;45.456;11.064;2022-10-24T14:01:30;100854.00;;;23.80
68745;BMP180;55731;45.456;11.064;2022-10-24T14:04:04;100856.40;;;23.80
68745;BMP180;55731;45.456;11.064;2022-10-24T14:06:39;100857.40;;;23.80
68745;BMP180;55731;45.456;11.064;2022-10-24T14:09:11;100856.00;;;23.70
68745;BMP180;55731;45.456;11.064;2022-10-24T14:11:46;100858.20;;;23.70
68745;BMP180;55731;45.456;11.064;2022-10-24T14:14:32;100856.80;;;23.70
68745;BMP180;55731;45.456;11.064;2022-10-24T14:17:18;100856.60;;;23.70
68745;BMP180;55731;45.456;11.064;2022-10-24T14:19:59;100867.40;;;23.70
68745;BMP180;55731;45.456;11.064;2022-10-24T14:22:40;100864.00;;;23.60
68745;BMP180;55731;45.456;11.064;2022-10-24T14:25:27;100850.20;;;23.60
68745;BMP180;55731;45.456;11.064;2022-10-24T14:28:08;100846.20;;;23.60
68745;BMP180;55731;45.456;11.064;2022-10-24T14:30:52;100841.00;;;23.60
68745;BMP180;55731;45.456;11.064;2022-10-24T14:33:28;100847.00;;;23.70
68745;BMP180;55731;45.456;11.064;2022-10-24T14:36:05;100840.00;;;23.70
68745;BMP180;55731;45.456;11.064;2022-10-24T14:38:40;100836.20;;;23.70
68745;BMP180;55731;45.456;11.064;2022-10-24T14:41:14;100835.00;;;23.70
68745;BMP180;55731;45.456;11.064;2022-10-24T14:43:47;100841.60;;;23.70
68745;BMP180;55731;45.456;11.064;2022-10-24T14:46:36;100839.60;;;23.60
68745;BMP180;55731;45.456;11.064;2022-10-24T14:49:32;100841.60;;;23.60
68745;BMP180;55731;45.456;11.064;2022-10-24T14:52:14;100838.00;;;23.60
68745;BMP180;55731;45.456;11.064;2022-10-24T14:55:02;100836.20;;;23.50
68745;BMP180;55731;45.456;11.064;2022-10-24T14:57:37;100834.00;;;23.48
68745;BMP180;55731;45.456;11.064;2022-10-24T15:00:26;100835.80;;;23.40
68745;BMP180;55731;45.456;11.064;2022-10-24T15:03:01;100831.40;;;23.40
68745;BMP180;55731;45.456;11.064;2022-10-24T15:05:38;100833.00;;;23.30